Allensville, PA

5:55 PM EDT on October 21, 2014 (GMT -0400)
Farm view | Change Station
CLOSE
Current Station
Personal Weather Station
Location: Allensville, PA
Elevation: 938 ft
Nearby Weather Stations

Elev 938 ft 40.53 °N, 77.82 °W | Updated 35 seconds ago

Overcast
Overcast
55.6 °F
Feels Like 55.6 °F
N
3.2
Wind Variable Wind from WSW

Today
High -- | Low -- °F
--% Chance of Precip.
Yesterday
High -- | Low -- °F
Precip. -- in
7:28 AM 6:21 PM
Waning Crescent, 4% visible
Pressure 29.87 in
Visibility 7.0 miles
Clouds Scattered Clouds 4500 ft
Overcast 8000 ft
Dew Point 50 °F
Humidity 80%
Rainfall 0.03 in
Snow Depth Not available.
UV 0 out of 12
Pollen .30 out of 12
Air Quality Not available.
Flu Activity Sporadic
METAR KUNV 212053Z 33005KT 7SM -RA SCT045 OVC080 11/09 A2987

More Conditions Fewer Conditions

Pressure 29.87 in
Visibility 7.0 miles
Clouds Scattered Clouds 4500 ft
Overcast 8000 ft
Dew Point 50 °F
Humidity 80%
Rainfall 0.03 in
Snow Depth Not available.
UV 0 out of 12
Pollen .30 out of 12
Air Quality Not available.
Flu Activity Sporadic
METAR KUNV 212053Z 33005KT 7SM -RA SCT045 OVC080 11/09 A2987

More Conditions Fewer Conditions

Nowcast | as of 4:29 PM EDT on October 21, 2014

Occasional...slow moving showers will occur through 6 PM. Temperatures will range from around 50 across the northwest mountains...to the upper 50s in south central Pennsylvania. Rainfall amounts over the next few hours will be mainly between one tenth and one quarter of an inch. However...some locations will see around one half of an inch.

×

10-Day Weather Forecast

Almanac

Astronomy

Oct. 21, 2014 Rise Set
Actual Time 7:28 AM EDT 6:21 PM EDT
Civil Twilight 7:00 AM EDT 6:49 PM EDT
Nautical Twilight 6:28 AM EDT 7:21 PM EDT
Astronomical Twilight 5:57 AM EDT 7:53 PM EDT
Moon 5:10 AM EDT 5:15 PM EDT
Length of Visible Light 11h 48m
Length of Day
10h 53m
Tomorrow will be 2m 31s shorter.
Waning Crescent, 4% of the Moon is Illuminated
Today
Waning Crescent
Oct 23
New
Oct 30
First Quarter
Nov 6
Full
Nov 14
Last Quarter

Today's Extremes

State Highs State Lows

Community

WunderPhotos

Upload Photos

1,763,785 photos uploaded!

Nearby

Snow Depth

Station Depth Elevation
No new snow has been reported.

Earthquake Activity

City Distance Mag. Time & Date
No recent earthquake activity has been reported nearby.
Minimum magnitude displayed is 2.5.

Coastal Water Temperatures

Place Temperature
No Stations Reporting

Nearby Weather Stations